Time;durP1;ratioP1;P1;durP2;ratioP2;P2;SDS_P1;SDS_P2;PMS_P1;PMS_P2;Temp;Humidity;BMP_temperature;BMP_pressure;BME280_temperature;BME280_humidity;BME280_pressure;Samples;Min_cycle;Max_cycle;Signal;HPM_P1;HPM_P2
2022/06/14 04:58:04;;;;;;;8.02;3.50;;;;;;;10.86;100.00;101403.78;4914373;23;20463;-80
2022/06/14 05:00:39;;;;;;;4.38;2.70;;;;;;;10.95;100.00;101403.69;4923939;29;20044;-80
2022/06/14 05:03:14;;;;;;;4.70;2.50;;;;;;;11.02;100.00;101401.84;4916249;29;20076;-80
2022/06/14 05:05:45;;;;;;;5.25;2.53;;;;;;;11.05;100.00;101398.28;4890471;29;20064;-81
2022/06/14 05:08:23;;;;;;;5.15;2.83;;;;;;;11.14;100.00;101401.72;4906893;29;20569;-80
2022/06/14 05:11:13;;;;;;;8.32;3.08;;;;;;;11.28;100.00;101404.22;4873942;29;20095;-80
2022/06/14 05:14:02;;;;;;;7.47;2.70;;;;;;;11.52;100.00;101403.03;4873539;29;20053;-81
2022/06/14 05:16:36;;;;;;;5.60;2.95;;;;;;;11.73;100.00;101400.09;4905638;29;20040;-80
2022/06/14 05:19:22;;;;;;;4.55;2.60;;;;;;;11.90;96.81;101399.91;4875597;29;20053;-80
2022/06/14 05:22:13;;;;;;;6.07;2.80;;;;;;;11.96;97.01;101391.00;4889987;29;20064;-81
2022/06/14 05:24:41;;;;;;;5.90;3.47;;;;;;;12.02;96.73;101386.50;4869931;29;20044;-80
2022/06/14 05:27:21;;;;;;;5.05;2.63;;;;;;;12.02;96.96;101382.94;4894932;29;20036;-79
2022/06/14 05:30:15;;;;;;;4.80;2.67;;;;;;;12.24;97.70;101389.69;4911199;29;20049;-82
2022/06/14 05:33:10;;;;;;;6.18;3.28;;;;;;;12.29;95.26;101390.50;4872644;29;20049;-79
2022/06/14 05:36:22;;;;;;;6.50;2.60;;;;;;;12.45;93.73;101391.13;4892203;29;20045;-79
2022/06/14 05:39:23;;;;;;;8.40;2.78;;;;;;;13.08;91.13;101398.81;4871727;29;20087;-78
2022/06/14 05:42:00;;;;;;;;;;;;;;;13.68;86.87;101409.13;4888596;29;20056;-79
2022/06/14 05:44:42;;;;;;;5.70;2.88;;;;;;;14.27;84.27;101398.06;4888475;29;19971;-81
2022/06/14 05:47:18;;;;;;;4.35;2.40;;;;;;;15.01;78.05;101403.31;4893518;29;20044;-79
2022/06/14 05:49:52;;;;;;;13.10;3.53;;;;;;;15.52;74.77;101409.88;4907746;29;20052;-79
2022/06/14 05:52:27;;;;;;;10.15;2.75;;;;;;;15.66;72.39;101405.06;4885614;29;20041;-80
2022/06/14 05:55:08;;;;;;;3.65;2.20;;;;;;;15.47;72.45;101408.25;4891552;29;20048;-80
2022/06/14 05:57:43;;;;;;;5.72;3.17;;;;;;;15.02;74.56;101401.50;4894617;29;20096;-81
2022/06/14 06:00:49;;;;;;;8.63;2.80;;;;;;;14.70;74.84;101413.00;4892192;29;20045;-80
2022/06/14 06:03:27;;;;;;;6.47;2.63;;;;;;;14.78;76.01;101408.34;4894051;29;20052;-79
2022/06/14 06:06:21;;;;;;;5.93;2.47;;;;;;;15.09;76.59;101417.28;4903433;29;20393;-80
2022/06/14 06:09:19;;;;;;;5.35;2.50;;;;;;;14.79;75.28;101404.78;4874565;29;20067;-81
2022/06/14 06:11:56;;;;;;;6.63;2.67;;;;;;;14.73;75.67;101408.50;4894167;29;20132;-81
2022/06/14 06:14:35;;;;;;;7.65;2.70;;;;;;;14.62;77.07;101407.88;4925741;29;20104;-83
2022/06/14 06:17:16;;;;;;;8.60;3.13;;;;;;;14.58;78.38;101415.06;4915271;29;20460;-80
2022/06/14 06:19:53;;;;;;;6.55;2.83;;;;;;;14.40;79.24;101409.28;4896693;29;20085;-80
2022/06/14 06:22:27;;;;;;;9.18;3.78;;;;;;;14.31;77.90;101421.91;4897811;29;20048;-80
2022/06/14 06:25:03;;;;;;;;;;;;;;;14.15;79.45;101424.94;4897188;29;20084;-79
2022/06/14 06:27:44;;;;;;;5.65;2.53;;;;;;;14.46;78.99;101419.78;4930461;29;20052;-80
2022/06/14 06:30:17;;;;;;;10.77;3.50;;;;;;;14.78;77.95;101416.34;4910081;29;20079;-80
2022/06/14 06:32:45;;;;;;;9.50;2.92;;;;;;;15.14;74.41;101423.38;4891303;29;20067;-81
2022/06/14 06:35:13;;;;;;;6.80;2.80;;;;;;;15.30;71.53;101437.13;4894067;29;20029;-79
2022/06/14 06:37:47;;;;;;;6.05;2.20;;;;;;;15.31;76.18;101427.34;4874106;29;20077;-80
2022/06/14 06:40:17;;;;;;;7.32;2.45;;;;;;;15.25;72.32;101428.38;4894662;29;20187;-80
2022/06/14 06:43:09;;;;;;;5.28;2.53;;;;;;;15.44;73.70;101428.75;4924064;29;20040;-79
2022/06/14 06:45:40;;;;;;;5.22;2.50;;;;;;;15.20;70.58;101424.97;4882576;29;20052;-82
2022/06/14 06:48:13;;;;;;;7.63;2.08;;;;;;;15.56;72.56;101419.53;4872921;29;20049;-80
2022/06/14 06:50:58;;;;;;;7.18;3.22;;;;;;;16.37;74.00;101417.06;4906723;29;20052;-81
2022/06/14 06:53:42;;;;;;;7.38;2.30;;;;;;;16.73;67.90;101417.66;4886477;29;20067;-77
2022/06/14 06:56:40;;;;;;;4.60;2.03;;;;;;;16.82;63.77;101415.59;4881087;29;20044;-80
2022/06/14 06:59:15;;;;;;;7.75;2.25;;;;;;;17.06;63.00;101410.28;4881278;29;20056;-80
2022/06/14 07:01:52;;;;;;;5.50;2.17;;;;;;;16.70;63.50;101421.31;4888533;29;20037;-80
2022/06/14 07:07:25;;;;;;;5.38;2.50;;;;;;;16.60;64.43;101428.72;4875239;29;20041;-80
2022/06/14 07:10:11;;;;;;;5.95;3.17;;;;;;;16.72;66.81;101435.47;4858747;29;20109;-81
2022/06/14 07:13:12;;;;;;;5.45;2.35;;;;;;;17.09;64.16;101434.22;4903812;29;20093;-79
2022/06/14 07:16:02;;;;;;;7.43;1.80;;;;;;;17.41;63.83;101425.94;4874547;29;20045;-81
2022/06/14 07:18:42;;;;;;;4.80;1.73;;;;;;;17.71;59.87;101423.06;4893722;29;20048;-81
2022/06/14 07:21:23;;;;;;;4.00;1.80;;;;;;;17.47;58.37;101426.63;4875899;29;20136;-82
2022/06/14 07:24:01;;;;;;;6.18;1.75;;;;;;;17.04;59.24;101434.38;4871859;29;20053;-79
2022/06/14 07:26:39;;;;;;;4.70;2.00;;;;;;;17.08;59.62;101433.38;4879474;29;20067;-81
2022/06/14 07:29:13;;;;;;;3.03;1.77;;;;;;;17.07;59.42;101436.09;4871888;29;20327;-82
2022/06/14 07:32:05;;;;;;;4.93;2.08;;;;;;;16.87;60.44;101429.63;4889212;29;20044;-81
2022/06/14 07:34:36;;;;;;;4.68;2.30;;;;;;;17.05;60.42;101438.78;4901270;29;20497;-81
2022/06/14 07:37:19;;;;;;;4.43;1.90;;;;;;;17.15;62.24;101434.91;4873176;29;20049;-80
2022/06/14 07:40:27;;;;;;;4.72;2.20;;;;;;;17.30;59.86;101433.44;4852657;29;20056;-80
2022/06/14 07:43:38;;;;;;;4.45;1.92;;;;;;;17.30;59.98;101427.25;4891024;29;20047;-80
2022/06/14 07:46:09;;;;;;;5.03;1.52;;;;;;;17.34;59.45;101437.78;4835082;29;20077;-82
2022/06/14 07:49:00;;;;;;;3.42;1.35;;;;;;;17.21;57.79;101425.78;4818898;29;20054;-82
2022/06/14 07:51:33;;;;;;;5.60;1.85;;;;;;;17.30;60.41;101433.44;4826333;29;20045;-80
2022/06/14 07:54:16;;;;;;;4.28;1.70;;;;;;;17.19;57.65;101430.31;4889222;29;20049;-80
2022/06/14 07:57:22;;;;;;;5.32;1.73;;;;;;;16.94;57.88;101427.63;4892625;29;20048;-79
2022/06/14 08:01:07;;;;;;;6.68;1.80;;;;;;;17.15;57.33;101431.31;4908369;29;20040;-81
2022/06/14 08:03:01;;;;;;;4.32;2.22;;;;;;;16.88;57.28;101438.50;4889047;29;20055;-79
2022/06/14 08:05:37;;;;;;;3.55;1.45;;;;;;;16.72;56.80;101435.47;4875374;29;20076;-80
2022/06/14 08:08:12;;;;;;;4.22;1.80;;;;;;;17.29;58.39;101434.38;4893355;29;20156;-80
2022/06/14 08:10:44;;;;;;;3.83;1.60;;;;;;;17.67;57.59;101429.44;4857118;29;20131;-80
2022/06/14 08:13:19;;;;;;;2.92;1.83;;;;;;;18.49;55.19;101433.34;4858878;29;20065;-78
2022/06/14 08:15:49;;;;;;;4.85;1.70;;;;;;;19.00;52.90;101426.75;4869826;29;20136;-79
2022/06/14 08:18:21;;;;;;;6.45;2.00;;;;;;;19.70;53.08;101417.44;4894097;29;20046;-80
2022/06/14 08:20:55;;;;;;;3.67;1.90;;;;;;;20.04;50.66;101414.91;4891423;29;20044;-80
2022/06/14 08:23:41;;;;;;;5.03;1.70;;;;;;;20.26;48.31;101412.03;4919744;29;20055;-82
2022/06/14 08:26:22;;;;;;;3.08;1.65;;;;;;;20.36;46.83;101407.97;4922289;29;20049;-80
2022/06/14 08:29:10;;;;;;;;;;;;;;;;;;;;;
2022/06/14 08:31:50;;;;;;;3.45;1.33;;;;;;;18.88;49.02;101428.19;4914668;29;20059;-81
2022/06/14 08:35:17;;;;;;;2.45;1.45;;;;;;;18.38;49.78;101427.56;4912554;29;20051;-80
2022/06/14 08:37:47;;;;;;;7.18;2.28;;;;;;;18.18;50.86;101423.91;4891259;29;20073;-81
2022/06/14 08:40:43;;;;;;;7.05;2.20;;;;;;;17.82;50.73;101431.53;4898127;29;20135;-79
2022/06/14 08:43:19;;;;;;;3.90;1.25;;;;;;;17.72;51.28;101430.16;4910861;29;20032;-78
2022/06/14 08:46:15;;;;;;;17.80;3.75;;;;;;;17.58;50.13;101437.81;4894653;29;20058;-79
2022/06/14 08:49:19;;;;;;;6.47;2.75;;;;;;;17.39;51.30;101440.25;4898240;29;20044;-79
2022/06/14 08:52:15;;;;;;;4.80;2.20;;;;;;;17.13;51.23;101439.41;4875954;29;20071;-80
2022/06/14 08:55:14;;;;;;;4.75;1.45;;;;;;;16.61;53.58;101446.47;4908981;29;20040;-80
2022/06/14 08:58:08;;;;;;;5.32;1.60;;;;;;;16.31;53.60;101443.03;4907452;29;20052;-80
2022/06/14 09:00:53;;;;;;;2.95;1.40;;;;;;;16.10;54.69;101456.13;4874092;29;20455;-80
2022/06/14 09:03:35;;;;;;;3.78;1.30;;;;;;;16.38;54.71;101438.34;4899498;29;20447;-82
2022/06/14 09:06:20;;;;;;;5.50;1.83;;;;;;;16.63;52.90;101445.56;4889917;29;20058;-80
2022/06/14 09:09:02;;;;;;;6.40;1.50;;;;;;;16.82;53.77;101438.72;4907789;29;20047;-79
2022/06/14 09:11:42;;;;;;;4.25;1.48;;;;;;;17.37;52.81;101439.44;4888110;29;20040;-81
2022/06/14 09:14:37;;;;;;;4.10;1.40;;;;;;;17.83;52.16;101440.47;4871257;29;20466;-80
2022/06/14 09:17:09;;;;;;;2.90;1.40;;;;;;;17.67;50.75;101440.13;4876122;29;20041;-79
2022/06/14 09:20:16;;;;;;;5.80;1.83;;;;;;;16.93;50.89;101449.91;4900895;29;20120;-79
2022/06/14 09:23:18;;;;;;;5.15;1.40;;;;;;;16.74;51.49;101444.31;4916468;29;20052;-81
2022/06/14 09:26:11;;;;;;;3.75;1.50;;;;;;;16.55;53.46;101449.34;4892402;29;20112;-80
2022/06/14 09:29:12;;;;;;;3.17;1.33;;;;;;;16.59;53.96;101450.13;4910300;29;20040;-79
2022/06/14 09:32:18;;;;;;;4.60;1.70;;;;;;;16.85;55.20;101457.28;4898981;29;20047;-79
2022/06/14 09:35:12;;;;;;;3.83;1.50;;;;;;;17.20;53.86;101449.88;4895898;29;20048;-79
2022/06/14 09:38:10;;;;;;;5.75;1.65;;;;;;;17.40;52.30;101450.91;4878833;29;20070;-80
2022/06/14 09:41:01;;;;;;;3.13;1.77;;;;;;;17.57;51.84;101452.06;4881639;29;20675;-80
2022/06/14 09:43:57;;;;;;;2.10;1.30;;;;;;;17.70;51.63;101448.94;4885506;29;20063;-80
2022/06/14 09:46:42;;;;;;;3.80;1.75;;;;;;;17.50;51.74;101446.09;4831859;29;20422;-80
2022/06/14 09:49:24;;;;;;;8.40;1.88;;;;;;;17.32;52.24;101447.66;4876388;29;20048;-81
2022/06/14 09:52:14;;;;;;;5.03;1.60;;;;;;;17.42;52.97;101446.38;4891743;29;20041;-81
2022/06/14 09:54:59;;;;;;;4.70;2.17;;;;;;;17.47;50.88;101448.00;4864385;29;20509;-80
2022/06/14 09:57:44;;;;;;;3.20;1.25;;;;;;;17.47;50.91;101451.53;4872203;29;20132;-81
2022/06/14 10:00:15;;;;;;;4.38;1.73;;;;;;;17.67;51.55;101450.81;4898069;29;20048;-81
2022/06/14 10:03:04;;;;;;;3.70;1.67;;;;;;;17.98;51.19;101453.22;4881152;29;20041;-80
2022/06/14 10:05:50;;;;;;;5.10;1.50;;;;;;;18.28;50.23;101446.69;4875514;29;20051;-81
2022/06/14 10:08:29;;;;;;;2.97;1.60;;;;;;;18.35;50.05;101449.13;4888638;29;20179;-83
2022/06/14 10:11:20;;;;;;;3.50;1.95;;;;;;;18.74;47.39;101442.13;4854541;29;20462;-80
2022/06/14 10:14:00;;;;;;;4.57;1.70;;;;;;;19.01;48.01;101449.97;4897775;29;20033;-81
2022/06/14 10:16:33;;;;;;;3.80;1.52;;;;;;;19.10;46.97;101449.56;4866536;29;20045;-81
2022/06/14 10:19:06;;;;;;;3.97;1.55;;;;;;;18.83;46.47;101451.59;4891627;29;20048;-80
2022/06/14 10:21:45;;;;;;;4.32;1.52;;;;;;;18.56;47.42;101454.44;4896308;29;20049;-81
2022/06/14 10:24:24;;;;;;;4.38;1.77;;;;;;;18.44;48.18;101454.09;4879571;29;20515;-82
2022/06/14 10:30:26;;;;;;;3.08;1.25;;;;;;;18.13;49.74;101449.09;4879615;29;20071;-82
2022/06/14 10:33:17;;;;;;;3.65;1.83;;;;;;;18.35;49.73;101449.97;4865929;29;20044;-81
2022/06/14 10:36:08;;;;;;;4.63;1.80;;;;;;;18.66;49.51;101438.91;4879777;29;20049;-81
2022/06/14 10:38:50;;;;;;;4.68;2.05;;;;;;;19.22;46.52;101440.09;4865716;29;20594;-80
2022/06/14 10:41:34;;;;;;;2.78;1.35;;;;;;;19.49;46.44;101438.88;4880912;29;20079;-81
2022/06/14 10:44:04;;;;;;;;;;;;;;;19.22;46.65;101446.34;4865046;29;20946;-80
2022/06/14 10:46:39;;;;;;;3.55;2.15;;;;;;;18.93;46.80;101450.28;4895588;29;20007;-81
2022/06/14 10:49:36;;;;;;;4.32;1.85;;;;;;;18.40;48.25;101444.44;4880827;29;20486;-81
2022/06/14 10:52:11;;;;;;;;;;;;;;;17.71;49.86;101449.78;4904675;29;20043;-81
2022/06/14 10:55:11;;;;;;;4.65;1.75;;;;;;;17.43;50.18;101450.78;4914197;29;19929;-81
2022/06/14 10:57:41;;;;;;;3.92;1.63;;;;;;;17.19;51.46;101454.34;4915533;29;20063;-79
2022/06/14 11:00:21;;;;;;;5.45;1.45;;;;;;;17.09;51.94;101444.91;4898605;29;20051;-79
2022/06/14 11:03:05;;;;;;;2.47;1.33;;;;;;;17.16;51.05;101459.78;4890845;29;20040;-79
2022/06/14 11:05:49;;;;;;;3.40;1.85;;;;;;;17.08;50.95;101446.72;4883105;29;20049;-79
2022/06/14 11:08:22;;;;;;;2.75;1.70;;;;;;;17.37;51.50;101450.13;4897889;29;20494;-79
2022/06/14 11:11:10;;;;;;;3.78;1.33;;;;;;;17.55;50.72;101452.13;4894139;29;20056;-79
2022/06/14 11:14:03;;;;;;;2.42;1.25;;;;;;;17.98;49.78;101453.22;4893657;29;20040;-79
2022/06/14 11:17:15;;;;;;;2.22;1.52;;;;;;;18.45;49.68;101456.69;4866685;29;20541;-80
2022/06/14 11:19:57;;;;;;;2.03;1.60;;;;;;;18.27;48.88;101457.44;4864040;29;20127;-80
2022/06/14 11:22:40;;;;;;;6.55;1.40;;;;;;;18.39;48.80;101450.72;4866209;29;20131;-80
2022/06/14 11:25:23;;;;;;;5.50;1.45;;;;;;;18.47;49.43;101444.13;4877530;29;20036;-79
2022/06/14 11:28:11;;;;;;;4.68;1.60;;;;;;;18.56;48.93;101446.41;4875070;29;20494;-78
2022/06/14 11:30:49;;;;;;;4.15;1.85;;;;;;;18.27;47.99;101452.09;4862606;29;20047;-79
2022/06/14 11:33:48;;;;;;;4.32;1.60;;;;;;;18.29;49.30;101450.22;4872886;29;20029;-78
2022/06/14 11:36:35;;;;;;;15.35;2.88;;;;;;;18.15;48.78;101450.75;4865693;29;20580;-79
2022/06/14 11:39:33;;;;;;;496.13;74.90;;;;;;;18.25;49.69;101446.81;4864216;29;20077;-79
2022/06/14 11:42:05;;;;;;;6.57;1.88;;;;;;;18.22;48.80;101444.25;4870315;29;20051;-80
2022/06/14 11:45:05;;;;;;;3.17;1.63;;;;;;;18.10;47.77;101444.72;4897448;29;20044;-79
2022/06/14 11:47:42;;;;;;;11.20;3.13;;;;;;;18.17;48.78;101446.25;4906935;29;20103;-79
2022/06/14 11:50:17;;;;;;;2.00;1.20;;;;;;;18.33;49.82;101445.59;4878594;29;20048;-78
2022/06/14 11:53:06;;;;;;;4.15;1.80;;;;;;;18.16;47.46;101435.56;4879073;29;20044;-79
2022/06/14 11:56:03;;;;;;;5.05;1.60;;;;;;;18.17;49.93;101448.91;4875530;29;20131;-78
2022/06/14 11:58:50;;;;;;;3.28;1.48;;;;;;;18.08;49.74;101446.59;4859918;29;20057;-80
2022/06/14 12:01:39;;;;;;;6.05;2.00;;;;;;;17.86;50.78;101449.22;4913012;29;20052;-79
2022/06/14 12:04:23;;;;;;;3.97;1.75;;;;;;;17.62;51.17;101458.13;4881071;29;20490;-80
2022/06/14 12:07:03;;;;;;;3.33;1.55;;;;;;;17.25;51.78;101462.13;4880772;29;20052;-80
2022/06/14 12:09:49;;;;;;;5.80;1.65;;;;;;;17.32;52.45;101461.00;4865159;29;20044;-81
2022/06/14 12:12:41;;;;;;;6.03;2.20;;;;;;;17.35;51.62;101452.88;4911651;29;20040;-80
2022/06/14 12:15:12;;;;;;;3.50;1.80;;;;;;;17.38;50.98;101462.56;4873902;29;20061;-81
2022/06/14 12:17:51;;;;;;;3.97;1.88;;;;;;;17.27;52.03;101459.41;4875879;29;20059;-79
2022/06/14 12:20:21;;;;;;;7.45;2.00;;;;;;;17.28;51.55;101455.81;4879692;29;20512;-80
2022/06/14 12:22:54;;;;;;;28.23;4.17;;;;;;;17.46;52.37;101449.78;4849033;29;20053;-80
2022/06/14 14:52:32;;;;;;;3.72;1.67;;;;;;;18.83;49.46;101414.09;4955023;23;20071;-80
2022/06/14 14:55:35;;;;;;;6.47;2.35;;;;;;;18.99;48.69;101409.81;4865772;29;20222;-81
2022/06/14 14:58:32;;;;;;;8.30;2.65;;;;;;;18.78;47.57;101406.28;4877103;29;20052;-81
2022/06/14 15:06:55;;;;;;;6.88;1.73;;;;;;;19.05;48.66;101406.91;4863358;29;20083;-80
2022/06/14 15:09:29;;;;;;;3.10;1.65;;;;;;;18.97;49.27;101403.69;4861148;29;20048;-82
2022/06/14 15:12:01;;;;;;;3.05;1.63;;;;;;;19.08;49.17;101404.06;4845534;29;20120;-79
2022/06/14 15:14:28;;;;;;;2.92;1.65;;;;;;;19.08;48.78;101404.06;4847692;29;20097;-80
2022/06/14 15:19:54;;;;;;;7.28;1.88;;;;;;;18.98;49.78;101397.38;4864101;29;20095;-79
2022/06/14 15:22:36;;;;;;;4.80;1.67;;;;;;;19.16;50.23;101400.19;4859486;29;20056;-81
2022/06/14 15:25:16;;;;;;;3.45;1.48;;;;;;;19.17;48.86;101391.22;4840484;29;20060;-81
2022/06/14 15:27:50;;;;;;;3.38;1.50;;;;;;;19.36;48.33;101394.81;4864953;29;20097;-80
2022/06/14 15:30:35;;;;;;;2.55;1.30;;;;;;;19.41;48.86;101387.44;4846921;29;20049;-81
2022/06/14 15:33:26;;;;;;;5.80;1.88;;;;;;;19.23;48.33;101383.78;4862197;29;20068;-81
2022/06/14 15:36:08;;;;;;;2.90;1.50;;;;;;;19.28;49.14;101378.22;4860002;29;20048;-80
2022/06/14 15:38:34;;;;;;;3.38;1.63;;;;;;;19.32;48.38;101382.50;4858066;29;20049;-81
2022/06/14 15:41:14;;;;;;;3.65;1.65;;;;;;;19.32;49.08;101380.69;4863113;29;20045;-81
2022/06/14 15:43:56;;;;;;;3.75;1.60;;;;;;;19.34;48.09;101372.59;4863130;29;20037;-80
2022/06/14 15:46:24;;;;;;;4.32;1.60;;;;;;;19.07;49.07;101378.22;4870812;29;20056;-82
2022/06/14 15:49:02;;;;;;;3.40;1.45;;;;;;;19.00;48.44;101382.16;4858299;29;20541;-82
2022/06/14 15:51:31;;;;;;;4.35;1.50;;;;;;;19.01;48.76;101375.84;4859406;29;20049;-82
2022/06/14 15:53:58;;;;;;;2.30;1.58;;;;;;;18.79;48.18;101372.34;4843705;29;20522;-81
2022/06/14 15:56:39;;;;;;;2.95;1.55;;;;;;;18.64;48.77;101375.66;4861165;29;20128;-82
2022/06/14 15:59:20;;;;;;;1.95;1.50;;;;;;;18.74;49.40;101379.69;4835110;29;20061;-81
2022/06/14 16:01:52;;;;;;;3.17;1.73;;;;;;;18.77;49.11;101375.09;4831005;29;20131;-82
2022/06/14 16:04:23;;;;;;;3.22;1.67;;;;;;;18.87;48.61;101375.56;4829798;29;20048;-82
2022/06/14 16:06:59;;;;;;;3.70;1.30;;;;;;;18.91;49.10;101370.94;4859693;29;20048;-81
2022/06/14 16:09:34;;;;;;;1.83;1.40;;;;;;;18.83;49.16;101372.16;4847605;29;20057;-79
2022/06/14 16:12:07;;;;;;;3.45;1.90;;;;;;;18.85;48.47;101374.78;4850200;29;20041;-80
2022/06/14 16:14:57;;;;;;;2.95;1.55;;;;;;;18.62;49.09;101381.06;4865022;29;20109;-82
2022/06/14 16:17:36;;;;;;;2.00;1.20;;;;;;;18.65;49.86;101375.59;4864535;29;20055;-82
2022/06/14 16:20:18;;;;;;;4.03;1.70;;;;;;;18.76;48.54;101377.84;4875362;29;20048;-80
2022/06/14 16:22:45;;;;;;;2.10;1.40;;;;;;;18.80;49.70;101374.97;4862028;29;20041;-80
2022/06/14 16:25:17;;;;;;;4.38;1.88;;;;;;;18.88;49.72;101371.09;4861435;29;20045;-79
2022/06/14 16:28:04;;;;;;;6.35;1.73;;;;;;;18.97;49.40;101368.88;4846117;29;20052;-81
2022/06/14 16:30:37;;;;;;;2.75;1.65;;;;;;;18.99;49.50;101369.66;4845434;29;20056;-81
2022/06/14 16:33:15;;;;;;;4.50;1.90;;;;;;;19.08;49.39;101374.59;4845011;29;20040;-80
2022/06/14 16:35:55;;;;;;;4.57;1.63;;;;;;;18.93;48.55;101378.00;4863039;29;20053;-80
2022/06/14 16:38:44;;;;;;;8.63;1.70;;;;;;;18.70;49.37;101375.44;4846627;29;20055;-80
2022/06/14 16:41:13;;;;;;;4.03;1.75;;;;;;;18.65;50.42;101372.94;4846207;29;20143;-80
2022/06/14 16:43:54;;;;;;;3.70;1.75;;;;;;;18.72;50.54;101376.22;4841050;29;20046;-80
2022/06/14 16:46:27;;;;;;;2.42;1.60;;;;;;;18.77;50.51;101380.47;4846886;29;20075;-80
2022/06/14 16:49:16;;;;;;;2.33;1.63;;;;;;;18.86;50.48;101373.84;4846418;29;20528;-79
2022/06/14 16:51:49;;;;;;;16.00;2.40;;;;;;;18.98;49.71;101373.28;4863707;29;20041;-81
2022/06/14 16:54:25;;;;;;;3.22;1.70;;;;;;;19.00;48.69;101367.84;4876618;29;20045;-80
2022/06/14 16:56:59;;;;;;;3.85;1.40;;;;;;;18.65;49.76;101364.00;4863279;29;20045;-81
2022/06/14 16:59:34;;;;;;;3.00;1.58;;;;;;;18.57;49.14;101367.00;4831833;29;20053;-80
2022/06/14 17:02:20;;;;;;;3.80;1.27;;;;;;;18.39;50.94;101357.94;4863332;29;20045;-81
2022/06/14 17:05:09;;;;;;;2.45;1.17;;;;;;;18.25;51.68;101358.53;4859825;29;20052;-81
2022/06/14 17:07:46;;;;;;;2.63;1.75;;;;;;;18.18;52.78;101358.84;4863108;29;20044;-80
2022/06/14 17:10:26;;;;;;;3.63;1.40;;;;;;;18.04;53.64;101355.84;4831034;29;20041;-80
2022/06/14 17:13:03;;;;;;;2.78;1.42;;;;;;;18.06;53.10;101362.88;4876368;29;20045;-81
2022/06/14 17:15:36;;;;;;;3.03;1.50;;;;;;;18.02;51.80;101353.25;4843991;29;20253;-81
2022/06/14 17:18:04;;;;;;;3.87;1.50;;;;;;;18.10;52.94;101359.16;4842890;29;20048;-81
2022/06/14 17:20:37;;;;;;;2.30;1.38;;;;;;;18.11;51.42;101358.22;4847743;29;20053;-81
2022/06/14 17:23:27;;;;;;;6.20;1.83;;;;;;;18.01;51.61;101356.88;4833893;29;20139;-80
2022/06/14 17:31:47;;;;;;;1.63;1.35;;;;;;;17.87;54.67;101354.72;4860124;29;20041;-80
2022/06/14 17:34:40;;;;;;;3.03;1.60;;;;;;;17.85;56.93;101359.28;4830216;29;20068;-81
2022/06/14 17:37:22;;;;;;;19.50;4.15;;;;;;;17.60;55.50;101361.13;4871982;29;20045;-80
2022/06/14 17:40:18;;;;;;;6.95;2.53;;;;;;;17.57;57.56;101361.22;4846379;29;20045;-80
2022/06/14 17:42:59;;;;;;;18.15;2.55;;;;;;;17.56;56.58;101354.13;4867027;29;20055;-80
2022/06/14 17:45:31;;;;;;;3.67;1.60;;;;;;;17.55;56.30;101361.28;4845481;29;20523;-80
2022/06/14 17:48:21;;;;;;;3.05;1.30;;;;;;;17.49;57.27;101358.88;4848997;29;20064;-80
2022/06/14 17:51:00;;;;;;;3.35;1.38;;;;;;;17.52;58.37;101371.22;4861152;29;20048;-80
2022/06/14 17:53:51;;;;;;;3.70;1.73;;;;;;;17.52;60.38;101368.56;4833527;29;20055;-80
2022/06/14 17:56:36;;;;;;;3.00;1.45;;;;;;;17.36;60.92;101362.91;4846251;29;20080;-80
2022/06/14 17:59:29;;;;;;;3.28;2.03;;;;;;;17.26;60.18;101362.41;4852098;29;20057;-80
2022/06/14 18:02:31;;;;;;;2.38;1.38;;;;;;;17.30;61.02;101360.47;4846198;29;20057;-80
2022/06/14 18:05:01;;;;;;;1.65;1.30;;;;;;;17.21;59.44;101361.69;4847728;29;20494;-80
2022/06/14 18:07:49;;;;;;;2.83;1.50;;;;;;;17.19;59.47;101362.69;4882287;29;20057;-80
2022/06/14 18:10:23;;;;;;;4.55;1.58;;;;;;;17.17;60.22;101365.41;4882812;29;20045;-81
2022/06/14 18:13:00;;;;;;;2.95;1.60;;;;;;;17.10;60.31;101358.53;4848038;29;20051;-80
2022/06/14 18:15:30;;;;;;;2.78;1.60;;;;;;;17.04;61.41;101362.28;4836463;29;20083;-81
2022/06/14 18:17:57;;;;;;;2.58;1.52;;;;;;;17.03;62.79;101368.56;4843990;29;20060;-80
2022/06/14 18:23:20;;;;;;;1.92;1.48;;;;;;;16.93;65.03;101358.28;4873285;29;20156;-80
2022/06/14 18:25:53;;;;;;;3.75;1.40;;;;;;;16.76;65.12;101359.75;4831960;29;20049;-80
2022/06/14 18:28:34;;;;;;;4.72;1.73;;;;;;;16.73;65.84;101357.19;4873284;29;20041;-81
2022/06/14 18:31:36;;;;;;;1.55;1.30;;;;;;;16.58;65.65;101352.34;4833527;29;20121;-81
2022/06/14 18:34:18;;;;;;;3.17;1.75;;;;;;;16.55;66.64;101352.44;4863392;29;20057;-79
2022/06/14 18:36:56;;;;;;;4.53;2.00;;;;;;;16.41;66.60;101352.94;4854687;29;20045;-80
2022/06/14 18:42:49;;;;;;;2.45;1.40;;;;;;;16.12;68.23;101351.19;4849097;29;20190;-81
2022/06/14 18:45:17;;;;;;;3.38;1.45;;;;;;;16.03;68.26;101351.50;4852885;29;20074;-80
2022/06/14 18:47:56;;;;;;;3.17;1.35;;;;;;;15.91;69.27;101355.44;4858584;29;20144;-82
2022/06/14 18:50:34;;;;;;;3.90;1.50;;;;;;;15.87;68.90;101363.56;4840159;29;20072;-82
2022/06/14 18:53:08;;;;;;;3.58;1.95;;;;;;;15.79;68.50;101362.94;4854799;29;20071;-82
2022/06/14 18:55:38;;;;;;;1.73;1.30;;;;;;;15.71;68.42;101364.03;4855831;29;20101;-82
2022/06/14 18:58:32;;;;;;;4.32;1.75;;;;;;;15.58;69.19;101367.97;4841421;29;20049;-82
2022/06/14 19:01:06;;;;;;;2.63;1.73;;;;;;;15.46;69.64;101377.16;4826700;29;20068;-81
2022/06/14 19:03:32;;;;;;;3.83;1.67;;;;;;;15.30;70.64;101382.97;4871328;29;20048;-80
2022/06/14 19:06:14;;;;;;;4.65;1.63;;;;;;;15.20;71.55;101377.06;4854649;29;20116;-81
2022/06/14 19:09:00;;;;;;;3.58;2.20;;;;;;;15.04;72.07;101386.38;4842709;29;20049;-81
2022/06/14 19:11:52;;;;;;;1.65;1.42;;;;;;;14.83;73.10;101377.19;4832730;29;20485;-81
2022/06/14 19:14:43;;;;;;;2.22;1.50;;;;;;;14.70;73.23;101381.06;4846248;29;20049;-81
2022/06/14 19:17:54;;;;;;;2.63;1.70;;;;;;;14.53;74.39;101385.03;4855577;29;20501;-81
2022/06/14 19:20:31;;;;;;;2.03;1.48;;;;;;;14.42;74.68;101388.84;4834518;29;20436;-82
2022/06/14 19:23:11;;;;;;;2.42;1.65;;;;;;;14.25;75.38;101379.50;4856204;29;20048;-81
2022/06/14 19:25:57;;;;;;;2.63;1.42;;;;;;;14.16;76.31;101373.53;4867207;29;20148;-81
2022/06/14 19:28:48;;;;;;;2.08;1.40;;;;;;;14.04;77.34;101375.59;4854685;29;20396;-81
2022/06/14 19:31:39;;;;;;;2.45;2.00;;;;;;;13.90;78.71;101390.09;4866083;29;20069;-80
2022/06/14 19:34:32;;;;;;;3.88;1.50;;;;;;;13.69;80.52;101376.38;4827363;29;20052;-82
2022/06/14 19:37:17;;;;;;;2.92;1.60;;;;;;;13.60;81.91;101376.56;4856454;29;20087;-81
2022/06/14 19:39:55;;;;;;;2.85;1.70;;;;;;;13.58;83.13;101383.69;4844917;29;20049;-81
2022/06/14 19:42:43;;;;;;;2.25;1.60;;;;;;;13.48;84.03;101387.47;4829730;29;20049;-81
2022/06/14 19:45:22;;;;;;;2.63;1.80;;;;;;;13.32;84.63;101389.53;4870421;29;20052;-80
2022/06/14 19:48:04;;;;;;;2.78;1.67;;;;;;;13.22;85.52;101393.28;4849807;29;20060;-81
2022/06/14 19:50:47;;;;;;;3.33;1.77;;;;;;;13.15;86.27;101395.16;4874094;29;20132;-80
2022/06/14 19:53:16;;;;;;;2.00;1.73;;;;;;;13.11;87.52;101397.88;4839784;29;20045;-81
2022/06/14 19:55:45;;;;;;;3.20;1.92;;;;;;;13.04;87.51;101391.84;4840778;29;20743;-81
2022/06/14 19:58:17;;;;;;;2.95;2.05;;;;;;;12.94;89.22;101388.47;4828838;29;20431;-81
2022/06/14 20:00:47;;;;;;;3.85;1.98;;;;;;;12.80;89.55;101392.28;4839310;29;20056;-80
2022/06/14 20:03:36;;;;;;;2.72;1.90;;;;;;;12.68;90.11;101396.88;4823835;29;20046;-80
2022/06/14 20:06:22;;;;;;;3.60;1.67;;;;;;;12.61;90.75;101400.56;4850046;29;20041;-80
2022/06/14 20:08:55;;;;;;;3.65;2.00;;;;;;;12.50;91.84;101406.94;4863583;29;20187;-81
2022/06/14 20:11:29;;;;;;;3.20;1.77;;;;;;;12.33;92.98;101394.84;4828789;29;20434;-81
2022/06/14 20:13:56;;;;;;;3.50;1.92;;;;;;;12.22;93.84;101403.84;4847106;29;20044;-81
2022/06/14 20:16:26;;;;;;;2.90;2.05;;;;;;;12.14;94.61;101403.97;4843438;29;20052;-81
2022/06/14 20:19:03;;;;;;;2.75;2.13;;;;;;;12.04;95.35;101410.31;4848065;29;20424;-81
2022/06/14 20:21:31;;;;;;;3.20;2.10;;;;;;;11.98;95.76;101405.09;4840424;29;20056;-80
2022/06/14 20:23:57;;;;;;;3.88;1.88;;;;;;;11.93;96.65;101414.84;4841058;29;20041;-81
2022/06/14 20:26:31;;;;;;;4.55;2.05;;;;;;;11.83;97.56;101415.00;4841179;29;20037;-81